EPGD/GDN METAR and TAF weather

Enter ICAO airport designator
Station Type Date Time Source
EPGD METAR 2021/04/18 02:00 UTC NOAA

EPGD 180200Z 35003KT 310V040 CAVOK 06/04 Q1020


Station Type Date Time Source
EPGD Decoded METAR 2021/04/18 02:00 UTC NOAA

Gdansk-Rebiechowo, Poland (EPGD) 54-23N 018-28E 138M
Apr 17, 2021 - 10:00 PM EDT / 2021.04.18 0200 UTC
Wind: from the N (350 degrees) at 3 MPH (3 KT) (direction variable):0
Visibility: greater than 7 mile(s):0
Temperature: 42 F (6 C)
Dew Point: 39 F (4 C)
Relative Humidity: 86%
Pressure (altimeter): 30.12 in. Hg (1020 hPa)
ob: EPGD 180200Z 35003KT 310V040 CAVOK 06/04 Q1020
cycle: 2

Station Type Date Time Source
EPGD TAF 2021/04/17 18:37 UTC NOAA

TAF EPGD 171730Z 1718/1818 03008KT CAVOK PROB30 1800/1807 BKN004 BKN007
BECMG 1805/1807 09010KT PROB40
TEMPO 1809/1816 -SHRA SCT014 BKN025TCU

Example: see airport list